CST,Max TemperatureF,Mean TemperatureF,Min TemperatureF,Max Dew PointF,MeanDew PointF,Min DewpointF,Max Humidity, Mean Humidity, Min Humidity, Max Sea Level PressureIn, Mean Sea Level PressureIn, Min Sea Level PressureIn, Max VisibilityMiles, Mean VisibilityMiles, Min VisibilityMiles, Max Wind SpeedMPH, Mean Wind SpeedMPH, Max Gust SpeedMPH,PrecipitationIn, CloudCover, Events, WindDirDegrees
2013-11-1,75,69,61,71,65,52,100,87,64,29.94,29.85,29.81,10,10,6,10,5,,0.02,6,Rain,282
2013-11-2,75,66,56,53,49,43,81,58,38,30.16,30.02,29.93,10,10,10,15,5,20,0.00,1,,358
2013-11-3,68,57,47,47,45,42,84,64,39,30.24,30.19,30.15,10,10,10,12,7,,0.00,0,,56
2013-11-4,72,61,50,57,52,45,82,68,54,30.27,30.21,30.18,10,10,10,15,9,18,0.00,5,,76
2013-11-5,74,68,62,60,57,53,84,71,57,30.26,30.20,30.16,10,10,10,16,11,22,0.00,4,,82
2013-11-6,79,70,60,69,65,55,93,82,70,30.15,30.10,30.07,10,10,10,17,10,23,0.00,5,,106
2013-11-7,71,60,50,70,58,37,100,82,53,30.29,30.14,30.04,10,10,6,21,9,29,0.00,6,,357
2013-11-8,65,54,44,40,36,32,70,53,30,30.33,30.26,30.20,10,10,10,18,12,22,0.00,0,,31
2013-11-9,72,59,46,59,51,39,87,73,56,30.25,30.21,30.18,10,10,10,10,7,,0.00,1,,65
2013-11-10,75,66,56,58,53,50,89,71,44,30.28,30.23,30.19,10,10,10,10,6,,0.00,3,,35
2013-11-11,74,62,51,60,53,46,100,78,36,30.25,30.20,30.16,10,8,1,9,5,,0.00,0,,42
2013-11-12,71,58,42,52,45,27,86,67,47,30.46,30.29,30.19,10,10,10,23,9,30,0.00,1,,14
2013-11-13,55,44,34,30,24,21,69,49,28,30.53,30.46,30.42,10,10,10,18,14,28,0.00,0,,33
2013-11-14,65,52,38,49,38,24,69,55,45,30.41,30.30,30.14,10,10,10,13,10,,0.00,3,,76
2013-11-15,73,66,58,68,61,49,100,91,69,30.13,30.06,30.00,10,9,2,13,8,,0.28,7,Rain,71
2013-11-16,75,68,60,72,66,61,100,97,79,30.09,30.04,29.99,10,5,0,15,7,,0.01,8,Fog,94
2013-11-17,75,72,68,73,70,68,100,99,83,30.01,29.97,29.92,10,4,0,12,8,,0.26,8,Fog-Rain-Thunderstorm,183
2013-11-18,71,65,57,72,65,40,100,93,45,30.10,30.00,29.95,10,6,0,24,5,31,0.51,7,Fog-Rain,328
2013-11-19,63,56,46,41,38,35,68,55,37,30.16,30.10,30.04,10,10,10,13,10,,0.02,1,,22
2013-11-20,69,56,42,58,49,34,91,75,61,30.14,30.11,30.06,10,10,10,10,7,,0.00,0,,79
2013-11-21,70,64,57,63,59,55,94,87,73,30.24,30.18,30.13,10,10,10,13,9,,0.00,7,,83
2013-11-22,78,70,62,70,66,61,100,90,73,30.23,30.19,30.15,10,9,1,14,7,,0.24,6,Rain,80
2013-11-23,66,58,49,64,58,40,100,89,69,30.31,30.21,30.17,10,10,7,20,10,29,0.01,8,,24
2013-11-24,53,46,40,38,29,24,69,52,34,30.38,30.33,30.29,10,10,10,20,15,28,0.00,2,,30
2013-11-25,66,52,39,66,52,27,100,88,59,30.29,30.01,29.86,10,9,4,20,12,29,0.33,7,Rain,88
2013-11-26,68,55,42,68,50,41,100,94,82,29.99,29.84,29.72,10,7,0,20,13,28,1.82,8,Fog-Rain-Thunderstorm,354
2013-11-27,49,42,35,41,31,25,93,68,40,30.41,30.17,29.99,10,10,10,24,16,34,0.01,2,,350
2013-11-28,,,,,,,,,,,,,,,,,,,0.00,,,-1
2013-11-29,,,,,,,,,,,,,,,,,,,,,,
2013-11-30,,,,,,,,,,,,,,,,,,,,,,